sensor_id;sensor_type;location;lat;lon;timestamp;P1;durP1;ratioP1;P2;durP2;ratioP2
57225;SDS011;43082;43.568;22.256;2023-04-24T00:01:52;18.05;;;9.40;;
57225;SDS011;43082;43.568;22.256;2023-04-24T00:04:18;13.98;;;8.43;;
57225;SDS011;43082;43.568;22.256;2023-04-24T00:06:43;13.73;;;8.52;;
57225;SDS011;43082;43.568;22.256;2023-04-24T00:09:09;19.77;;;8.07;;
57225;SDS011;43082;43.568;22.256;2023-04-24T00:11:35;18.48;;;10.68;;
57225;SDS011;43082;43.568;22.256;2023-04-24T00:14:00;18.45;;;9.48;;
57225;SDS011;43082;43.568;22.256;2023-04-24T00:16:26;20.10;;;11.43;;
57225;SDS011;43082;43.568;22.256;2023-04-24T00:18:51;16.95;;;9.82;;
57225;SDS011;43082;43.568;22.256;2023-04-24T00:21:21;18.98;;;10.15;;
57225;SDS011;43082;43.568;22.256;2023-04-24T00:23:46;17.45;;;10.10;;
57225;SDS011;43082;43.568;22.256;2023-04-24T00:26:12;14.48;;;8.20;;
57225;SDS011;43082;43.568;22.256;2023-04-24T00:28:37;12.02;;;7.05;;
57225;SDS011;43082;43.568;22.256;2023-04-24T00:31:02;12.27;;;7.03;;
57225;SDS011;43082;43.568;22.256;2023-04-24T00:33:28;12.88;;;6.65;;
57225;SDS011;43082;43.568;22.256;2023-04-24T00:35:53;12.30;;;6.30;;
57225;SDS011;43082;43.568;22.256;2023-04-24T00:38:18;11.15;;;6.47;;
57225;SDS011;43082;43.568;22.256;2023-04-24T00:40:44;11.95;;;6.53;;
57225;SDS011;43082;43.568;22.256;2023-04-24T00:43:09;15.55;;;7.57;;
57225;SDS011;43082;43.568;22.256;2023-04-24T00:45:35;15.43;;;7.78;;
57225;SDS011;43082;43.568;22.256;2023-04-24T00:48:01;11.93;;;7.05;;
57225;SDS011;43082;43.568;22.256;2023-04-24T00:50:26;12.02;;;6.95;;
57225;SDS011;43082;43.568;22.256;2023-04-24T00:52:52;10.82;;;5.72;;
57225;SDS011;43082;43.568;22.256;2023-04-24T00:55:17;10.45;;;5.88;;
57225;SDS011;43082;43.568;22.256;2023-04-24T00:57:43;11.23;;;5.80;;
57225;SDS011;43082;43.568;22.256;2023-04-24T01:00:09;13.15;;;6.90;;
57225;SDS011;43082;43.568;22.256;2023-04-24T01:02:36;16.80;;;8.07;;
57225;SDS011;43082;43.568;22.256;2023-04-24T01:05:01;13.18;;;7.80;;
57225;SDS011;43082;43.568;22.256;2023-04-24T01:07:27;12.35;;;6.97;;
57225;SDS011;43082;43.568;22.256;2023-04-24T01:09:52;12.35;;;6.90;;
57225;SDS011;43082;43.568;22.256;2023-04-24T01:12:18;11.30;;;5.88;;
57225;SDS011;43082;43.568;22.256;2023-04-24T01:14:43;11.45;;;5.50;;
57225;SDS011;43082;43.568;22.256;2023-04-24T01:17:09;9.20;;;4.97;;
57225;SDS011;43082;43.568;22.256;2023-04-24T01:19:34;9.75;;;4.90;;
57225;SDS011;43082;43.568;22.256;2023-04-24T01:21:59;9.13;;;4.78;;
57225;SDS011;43082;43.568;22.256;2023-04-24T01:24:26;10.32;;;5.47;;
57225;SDS011;43082;43.568;22.256;2023-04-24T01:26:52;10.50;;;5.45;;
57225;SDS011;43082;43.568;22.256;2023-04-24T01:29:17;11.85;;;5.70;;
57225;SDS011;43082;43.568;22.256;2023-04-24T01:31:42;9.65;;;5.18;;
57225;SDS011;43082;43.568;22.256;2023-04-24T01:34:08;12.43;;;6.50;;
57225;SDS011;43082;43.568;22.256;2023-04-24T01:36:33;10.82;;;5.65;;
57225;SDS011;43082;43.568;22.256;2023-04-24T01:39:00;12.80;;;6.38;;
57225;SDS011;43082;43.568;22.256;2023-04-24T01:41:25;11.13;;;6.25;;
57225;SDS011;43082;43.568;22.256;2023-04-24T01:43:50;11.80;;;5.75;;
57225;SDS011;43082;43.568;22.256;2023-04-24T01:46:16;10.77;;;5.75;;
57225;SDS011;43082;43.568;22.256;2023-04-24T01:48:41;11.25;;;5.82;;
57225;SDS011;43082;43.568;22.256;2023-04-24T01:51:07;13.25;;;5.43;;
57225;SDS011;43082;43.568;22.256;2023-04-24T01:53:32;11.43;;;5.68;;
57225;SDS011;43082;43.568;22.256;2023-04-24T01:55:57;11.45;;;5.82;;
57225;SDS011;43082;43.568;22.256;2023-04-24T01:58:23;14.40;;;7.45;;
57225;SDS011;43082;43.568;22.256;2023-04-24T02:00:48;12.60;;;6.57;;
57225;SDS011;43082;43.568;22.256;2023-04-24T02:03:13;13.45;;;6.18;;
57225;SDS011;43082;43.568;22.256;2023-04-24T02:05:40;15.23;;;7.10;;
57225;SDS011;43082;43.568;22.256;2023-04-24T02:08:05;13.02;;;6.47;;
57225;SDS011;43082;43.568;22.256;2023-04-24T02:10:30;12.82;;;7.20;;
57225;SDS011;43082;43.568;22.256;2023-04-24T02:12:56;12.82;;;6.90;;
57225;SDS011;43082;43.568;22.256;2023-04-24T02:15:21;14.93;;;7.55;;
57225;SDS011;43082;43.568;22.256;2023-04-24T02:17:46;12.70;;;6.95;;
57225;SDS011;43082;43.568;22.256;2023-04-24T02:20:11;13.73;;;7.30;;
57225;SDS011;43082;43.568;22.256;2023-04-24T02:22:37;10.55;;;6.47;;
57225;SDS011;43082;43.568;22.256;2023-04-24T02:25:02;14.23;;;6.70;;
57225;SDS011;43082;43.568;22.256;2023-04-24T02:27:28;11.52;;;6.72;;
57225;SDS011;43082;43.568;22.256;2023-04-24T02:29:53;13.50;;;7.30;;
57225;SDS011;43082;43.568;22.256;2023-04-24T02:32:19;15.93;;;8.07;;
57225;SDS011;43082;43.568;22.256;2023-04-24T02:34:44;21.17;;;10.10;;
57225;SDS011;43082;43.568;22.256;2023-04-24T02:37:09;15.65;;;7.40;;
57225;SDS011;43082;43.568;22.256;2023-04-24T02:39:34;15.25;;;7.03;;
57225;SDS011;43082;43.568;22.256;2023-04-24T02:42:00;12.48;;;6.32;;
57225;SDS011;43082;43.568;22.256;2023-04-24T02:44:26;16.98;;;6.43;;
57225;SDS011;43082;43.568;22.256;2023-04-24T02:46:52;12.68;;;6.88;;
57225;SDS011;43082;43.568;22.256;2023-04-24T02:49:17;12.88;;;7.03;;
57225;SDS011;43082;43.568;22.256;2023-04-24T02:51:42;16.33;;;8.45;;
57225;SDS011;43082;43.568;22.256;2023-04-24T02:54:08;13.43;;;7.78;;
57225;SDS011;43082;43.568;22.256;2023-04-24T02:56:34;15.88;;;8.88;;
57225;SDS011;43082;43.568;22.256;2023-04-24T02:59:00;14.30;;;8.13;;
57225;SDS011;43082;43.568;22.256;2023-04-24T03:01:25;16.30;;;7.90;;
57225;SDS011;43082;43.568;22.256;2023-04-24T03:03:50;12.15;;;5.88;;
57225;SDS011;43082;43.568;22.256;2023-04-24T03:06:16;11.35;;;6.20;;
57225;SDS011;43082;43.568;22.256;2023-04-24T03:08:41;10.95;;;6.07;;
57225;SDS011;43082;43.568;22.256;2023-04-24T03:11:06;13.48;;;6.57;;
57225;SDS011;43082;43.568;22.256;2023-04-24T03:13:31;12.77;;;6.05;;
57225;SDS011;43082;43.568;22.256;2023-04-24T03:15:57;12.10;;;5.95;;
57225;SDS011;43082;43.568;22.256;2023-04-24T03:18:22;7.88;;;3.60;;
57225;SDS011;43082;43.568;22.256;2023-04-24T03:20:47;10.13;;;4.40;;
57225;SDS011;43082;43.568;22.256;2023-04-24T03:23:13;10.23;;;4.60;;
57225;SDS011;43082;43.568;22.256;2023-04-24T03:25:38;9.50;;;5.00;;
57225;SDS011;43082;43.568;22.256;2023-04-24T03:28:03;11.63;;;5.43;;
57225;SDS011;43082;43.568;22.256;2023-04-24T03:30:29;11.55;;;5.68;;
57225;SDS011;43082;43.568;22.256;2023-04-24T03:32:55;9.38;;;5.13;;
57225;SDS011;43082;43.568;22.256;2023-04-24T03:35:20;9.77;;;5.05;;
57225;SDS011;43082;43.568;22.256;2023-04-24T03:37:47;10.05;;;5.10;;
57225;SDS011;43082;43.568;22.256;2023-04-24T03:40:12;13.10;;;6.45;;
57225;SDS011;43082;43.568;22.256;2023-04-24T03:42:37;15.65;;;6.88;;
57225;SDS011;43082;43.568;22.256;2023-04-24T03:45:02;12.68;;;6.45;;
57225;SDS011;43082;43.568;22.256;2023-04-24T03:47:28;11.75;;;6.00;;
57225;SDS011;43082;43.568;22.256;2023-04-24T03:49:53;12.48;;;6.80;;
57225;SDS011;43082;43.568;22.256;2023-04-24T03:52:20;18.05;;;6.88;;
57225;SDS011;43082;43.568;22.256;2023-04-24T03:54:46;12.75;;;6.65;;
57225;SDS011;43082;43.568;22.256;2023-04-24T03:57:11;12.75;;;6.57;;
57225;SDS011;43082;43.568;22.256;2023-04-24T03:59:36;16.90;;;7.43;;
57225;SDS011;43082;43.568;22.256;2023-04-24T04:02:01;12.70;;;6.88;;
57225;SDS011;43082;43.568;22.256;2023-04-24T04:04:27;16.15;;;7.80;;
57225;SDS011;43082;43.568;22.256;2023-04-24T04:06:52;14.80;;;8.30;;
57225;SDS011;43082;43.568;22.256;2023-04-24T04:09:18;26.50;;;12.75;;
57225;SDS011;43082;43.568;22.256;2023-04-24T04:11:43;24.80;;;12.85;;
57225;SDS011;43082;43.568;22.256;2023-04-24T04:14:08;33.17;;;15.02;;
57225;SDS011;43082;43.568;22.256;2023-04-24T04:16:34;37.83;;;19.88;;
57225;SDS011;43082;43.568;22.256;2023-04-24T04:19:01;29.60;;;16.27;;
57225;SDS011;43082;43.568;22.256;2023-04-24T04:21:27;22.35;;;12.80;;
57225;SDS011;43082;43.568;22.256;2023-04-24T04:23:53;22.30;;;11.32;;
57225;SDS011;43082;43.568;22.256;2023-04-24T04:26:18;19.95;;;10.73;;
57225;SDS011;43082;43.568;22.256;2023-04-24T04:28:44;19.63;;;11.52;;
57225;SDS011;43082;43.568;22.256;2023-04-24T04:31:09;19.52;;;12.43;;
57225;SDS011;43082;43.568;22.256;2023-04-24T04:33:35;16.27;;;11.00;;
57225;SDS011;43082;43.568;22.256;2023-04-24T04:36:01;17.48;;;9.98;;
57225;SDS011;43082;43.568;22.256;2023-04-24T04:38:27;15.13;;;7.05;;
57225;SDS011;43082;43.568;22.256;2023-04-24T04:40:55;13.73;;;7.43;;
57225;SDS011;43082;43.568;22.256;2023-04-24T04:43:22;13.32;;;7.05;;
57225;SDS011;43082;43.568;22.256;2023-04-24T04:45:47;14.93;;;10.57;;
57225;SDS011;43082;43.568;22.256;2023-04-24T04:48:13;14.10;;;9.23;;
57225;SDS011;43082;43.568;22.256;2023-04-24T04:50:39;18.90;;;12.07;;
57225;SDS011;43082;43.568;22.256;2023-04-24T04:53:04;15.10;;;8.45;;
57225;SDS011;43082;43.568;22.256;2023-04-24T04:55:30;12.13;;;6.55;;
57225;SDS011;43082;43.568;22.256;2023-04-24T04:57:55;12.30;;;6.60;;
57225;SDS011;43082;43.568;22.256;2023-04-24T05:00:21;15.55;;;7.85;;
57225;SDS011;43082;43.568;22.256;2023-04-24T05:02:47;19.55;;;8.02;;
57225;SDS011;43082;43.568;22.256;2023-04-24T05:05:12;14.50;;;8.10;;
57225;SDS011;43082;43.568;22.256;2023-04-24T05:07:37;13.73;;;8.07;;
57225;SDS011;43082;43.568;22.256;2023-04-24T05:10:02;13.43;;;8.02;;
57225;SDS011;43082;43.568;22.256;2023-04-24T05:12:28;20.65;;;11.32;;
57225;SDS011;43082;43.568;22.256;2023-04-24T05:14:53;18.92;;;10.68;;
57225;SDS011;43082;43.568;22.256;2023-04-24T05:17:18;22.50;;;10.82;;
57225;SDS011;43082;43.568;22.256;2023-04-24T05:19:44;17.50;;;10.75;;
57225;SDS011;43082;43.568;22.256;2023-04-24T05:22:10;25.30;;;13.20;;
57225;SDS011;43082;43.568;22.256;2023-04-24T05:24:36;19.40;;;11.60;;
57225;SDS011;43082;43.568;22.256;2023-04-24T05:27:02;16.35;;;9.15;;
57225;SDS011;43082;43.568;22.256;2023-04-24T05:29:27;22.25;;;13.20;;
57225;SDS011;43082;43.568;22.256;2023-04-24T05:31:53;21.10;;;13.77;;
57225;SDS011;43082;43.568;22.256;2023-04-24T05:34:18;18.10;;;10.90;;
57225;SDS011;43082;43.568;22.256;2023-04-24T05:36:43;19.48;;;11.15;;
57225;SDS011;43082;43.568;22.256;2023-04-24T05:39:09;17.92;;;11.48;;
57225;SDS011;43082;43.568;22.256;2023-04-24T05:41:34;25.17;;;16.75;;
57225;SDS011;43082;43.568;22.256;2023-04-24T05:43:59;41.60;;;28.50;;
57225;SDS011;43082;43.568;22.256;2023-04-24T05:46:25;43.15;;;28.67;;
57225;SDS011;43082;43.568;22.256;2023-04-24T05:48:50;37.97;;;25.35;;
57225;SDS011;43082;43.568;22.256;2023-04-24T05:51:15;27.33;;;18.27;;
57225;SDS011;43082;43.568;22.256;2023-04-24T05:53:41;20.60;;;13.00;;
57225;SDS011;43082;43.568;22.256;2023-04-24T05:56:06;20.02;;;11.90;;
57225;SDS011;43082;43.568;22.256;2023-04-24T05:58:31;18.15;;;10.98;;
57225;SDS011;43082;43.568;22.256;2023-04-24T06:00:57;16.67;;;10.15;;
57225;SDS011;43082;43.568;22.256;2023-04-24T06:03:23;17.80;;;10.05;;
57225;SDS011;43082;43.568;22.256;2023-04-24T06:05:49;20.40;;;12.93;;
57225;SDS011;43082;43.568;22.256;2023-04-24T06:08:15;16.08;;;9.60;;
57225;SDS011;43082;43.568;22.256;2023-04-24T06:10:40;23.95;;;15.27;;
57225;SDS011;43082;43.568;22.256;2023-04-24T06:13:06;22.38;;;13.32;;
57225;SDS011;43082;43.568;22.256;2023-04-24T06:15:31;24.23;;;14.90;;
57225;SDS011;43082;43.568;22.256;2023-04-24T06:17:57;21.98;;;15.68;;
57225;SDS011;43082;43.568;22.256;2023-04-24T06:20:22;27.95;;;18.45;;
57225;SDS011;43082;43.568;22.256;2023-04-24T06:22:48;26.92;;;19.27;;
57225;SDS011;43082;43.568;22.256;2023-04-24T06:25:13;30.10;;;20.58;;
57225;SDS011;43082;43.568;22.256;2023-04-24T06:27:38;28.85;;;20.05;;
57225;SDS011;43082;43.568;22.256;2023-04-24T06:30:04;22.13;;;16.02;;
57225;SDS011;43082;43.568;22.256;2023-04-24T06:32:29;23.83;;;15.63;;
57225;SDS011;43082;43.568;22.256;2023-04-24T06:34:55;19.35;;;13.38;;
57225;SDS011;43082;43.568;22.256;2023-04-24T06:37:21;20.77;;;11.95;;
57225;SDS011;43082;43.568;22.256;2023-04-24T06:39:46;19.05;;;11.43;;
57225;SDS011;43082;43.568;22.256;2023-04-24T06:42:12;17.73;;;9.98;;
57225;SDS011;43082;43.568;22.256;2023-04-24T06:44:37;15.32;;;9.77;;
57225;SDS011;43082;43.568;22.256;2023-04-24T06:47:08;20.10;;;12.20;;
57225;SDS011;43082;43.568;22.256;2023-04-24T06:49:35;19.88;;;11.20;;
57225;SDS011;43082;43.568;22.256;2023-04-24T06:52:00;16.67;;;10.90;;
57225;SDS011;43082;43.568;22.256;2023-04-24T06:54:25;21.08;;;12.73;;
57225;SDS011;43082;43.568;22.256;2023-04-24T06:56:51;23.35;;;12.77;;
57225;SDS011;43082;43.568;22.256;2023-04-24T06:59:17;21.77;;;13.60;;
57225;SDS011;43082;43.568;22.256;2023-04-24T07:01:42;22.27;;;13.68;;
57225;SDS011;43082;43.568;22.256;2023-04-24T07:04:07;25.15;;;15.25;;
57225;SDS011;43082;43.568;22.256;2023-04-24T07:06:32;22.45;;;13.68;;
57225;SDS011;43082;43.568;22.256;2023-04-24T07:08:58;19.48;;;11.80;;
57225;SDS011;43082;43.568;22.256;2023-04-24T07:11:25;19.48;;;11.40;;
57225;SDS011;43082;43.568;22.256;2023-04-24T07:13:54;23.40;;;17.30;;
57225;SDS011;43082;43.568;22.256;2023-04-24T07:16:19;22.20;;;15.38;;
57225;SDS011;43082;43.568;22.256;2023-04-24T07:18:45;26.17;;;15.98;;
57225;SDS011;43082;43.568;22.256;2023-04-24T07:21:10;22.92;;;13.77;;
57225;SDS011;43082;43.568;22.256;2023-04-24T07:23:36;19.20;;;12.63;;
57225;SDS011;43082;43.568;22.256;2023-04-24T07:26:01;22.05;;;13.75;;
57225;SDS011;43082;43.568;22.256;2023-04-24T07:28:27;22.83;;;13.75;;
57225;SDS011;43082;43.568;22.256;2023-04-24T07:30:56;22.02;;;15.15;;
57225;SDS011;43082;43.568;22.256;2023-04-24T07:33:21;21.10;;;13.18;;
57225;SDS011;43082;43.568;22.256;2023-04-24T07:35:46;23.05;;;12.50;;
57225;SDS011;43082;43.568;22.256;2023-04-24T07:38:12;21.60;;;11.07;;
57225;SDS011;43082;43.568;22.256;2023-04-24T07:40:37;18.42;;;10.27;;
57225;SDS011;43082;43.568;22.256;2023-04-24T07:43:03;17.15;;;9.90;;
57225;SDS011;43082;43.568;22.256;2023-04-24T07:45:28;14.52;;;8.02;;
57225;SDS011;43082;43.568;22.256;2023-04-24T07:47:53;18.95;;;7.63;;
57225;SDS011;43082;43.568;22.256;2023-04-24T07:50:19;13.38;;;7.70;;
57225;SDS011;43082;43.568;22.256;2023-04-24T07:52:45;12.82;;;7.40;;
57225;SDS011;43082;43.568;22.256;2023-04-24T07:55:11;16.75;;;9.57;;
57225;SDS011;43082;43.568;22.256;2023-04-24T07:57:36;14.40;;;8.07;;
57225;SDS011;43082;43.568;22.256;2023-04-24T08:00:02;15.07;;;8.15;;
57225;SDS011;43082;43.568;22.256;2023-04-24T08:02:28;18.00;;;8.40;;
57225;SDS011;43082;43.568;22.256;2023-04-24T08:04:54;13.80;;;8.35;;
57225;SDS011;43082;43.568;22.256;2023-04-24T08:07:19;14.77;;;9.10;;
57225;SDS011;43082;43.568;22.256;2023-04-24T08:09:45;19.45;;;9.82;;
57225;SDS011;43082;43.568;22.256;2023-04-24T08:12:10;16.65;;;9.77;;
57225;SDS011;43082;43.568;22.256;2023-04-24T08:14:35;15.55;;;8.40;;
57225;SDS011;43082;43.568;22.256;2023-04-24T08:17:01;17.45;;;7.68;;
57225;SDS011;43082;43.568;22.256;2023-04-24T08:19:27;19.13;;;8.65;;
57225;SDS011;43082;43.568;22.256;2023-04-24T08:21:52;16.63;;;7.28;;
57225;SDS011;43082;43.568;22.256;2023-04-24T08:24:18;14.57;;;7.28;;
57225;SDS011;43082;43.568;22.256;2023-04-24T08:26:43;12.25;;;6.63;;
57225;SDS011;43082;43.568;22.256;2023-04-24T08:29:08;15.60;;;5.90;;
57225;SDS011;43082;43.568;22.256;2023-04-24T08:31:34;13.70;;;5.63;;
57225;SDS011;43082;43.568;22.256;2023-04-24T08:34:00;13.88;;;6.40;;
57225;SDS011;43082;43.568;22.256;2023-04-24T08:36:25;16.88;;;6.35;;
57225;SDS011;43082;43.568;22.256;2023-04-24T08:38:51;15.80;;;7.20;;
57225;SDS011;43082;43.568;22.256;2023-04-24T08:41:16;12.00;;;6.93;;
57225;SDS011;43082;43.568;22.256;2023-04-24T08:43:42;12.48;;;7.28;;
57225;SDS011;43082;43.568;22.256;2023-04-24T08:46:08;16.50;;;6.65;;
57225;SDS011;43082;43.568;22.256;2023-04-24T08:48:35;10.80;;;6.53;;
57225;SDS011;43082;43.568;22.256;2023-04-24T08:51:00;11.43;;;6.10;;
57225;SDS011;43082;43.568;22.256;2023-04-24T08:53:27;17.55;;;6.15;;
57225;SDS011;43082;43.568;22.256;2023-04-24T08:55:54;14.60;;;5.80;;
57225;SDS011;43082;43.568;22.256;2023-04-24T08:58:19;10.30;;;5.30;;
57225;SDS011;43082;43.568;22.256;2023-04-24T09:00:45;9.52;;;5.32;;
57225;SDS011;43082;43.568;22.256;2023-04-24T09:03:13;10.38;;;5.57;;
57225;SDS011;43082;43.568;22.256;2023-04-24T09:05:39;11.27;;;5.22;;
57225;SDS011;43082;43.568;22.256;2023-04-24T09:08:05;11.05;;;5.30;;
57225;SDS011;43082;43.568;22.256;2023-04-24T09:10:32;12.57;;;5.30;;
57225;SDS011;43082;43.568;22.256;2023-04-24T09:12:59;9.65;;;5.20;;
57225;SDS011;43082;43.568;22.256;2023-04-24T09:15:27;20.17;;;7.80;;
57225;SDS011;43082;43.568;22.256;2023-04-24T09:17:52;12.73;;;5.85;;
57225;SDS011;43082;43.568;22.256;2023-04-24T09:20:18;12.75;;;6.72;;
57225;SDS011;43082;43.568;22.256;2023-04-24T09:22:43;10.60;;;4.50;;
57225;SDS011;43082;43.568;22.256;2023-04-24T09:25:10;11.25;;;4.90;;
57225;SDS011;43082;43.568;22.256;2023-04-24T09:27:41;9.18;;;4.28;;
57225;SDS011;43082;43.568;22.256;2023-04-24T09:30:06;12.98;;;6.53;;
57225;SDS011;43082;43.568;22.256;2023-04-24T09:32:32;7.22;;;3.97;;
57225;SDS011;43082;43.568;22.256;2023-04-24T09:35:11;9.32;;;4.15;;
57225;SDS011;43082;43.568;22.256;2023-04-24T09:37:40;9.57;;;3.92;;
57225;SDS011;43082;43.568;22.256;2023-04-24T09:40:19;10.95;;;3.92;;
57225;SDS011;43082;43.568;22.256;2023-04-24T09:42:45;11.35;;;4.13;;
57225;SDS011;43082;43.568;22.256;2023-04-24T09:45:11;9.07;;;4.25;;
57225;SDS011;43082;43.568;22.256;2023-04-24T09:47:39;10.02;;;4.45;;
57225;SDS011;43082;43.568;22.256;2023-04-24T09:50:12;9.35;;;4.60;;
57225;SDS011;43082;43.568;22.256;2023-04-24T09:52:45;15.35;;;4.70;;
57225;SDS011;43082;43.568;22.256;2023-04-24T09:55:11;11.35;;;5.30;;
57225;SDS011;43082;43.568;22.256;2023-04-24T09:57:46;13.60;;;6.55;;
57225;SDS011;43082;43.568;22.256;2023-04-24T10:00:11;18.27;;;5.85;;
57225;SDS011;43082;43.568;22.256;2023-04-24T10:02:37;17.52;;;5.55;;
57225;SDS011;43082;43.568;22.256;2023-04-24T10:05:02;10.95;;;4.95;;
57225;SDS011;43082;43.568;22.256;2023-04-24T10:07:27;14.52;;;4.95;;
57225;SDS011;43082;43.568;22.256;2023-04-24T10:09:53;13.52;;;4.97;;
57225;SDS011;43082;43.568;22.256;2023-04-24T10:12:18;10.50;;;5.40;;
57225;SDS011;43082;43.568;22.256;2023-04-24T10:14:44;11.60;;;5.80;;
57225;SDS011;43082;43.568;22.256;2023-04-24T10:17:10;12.48;;;5.50;;
57225;SDS011;43082;43.568;22.256;2023-04-24T10:19:36;13.40;;;5.25;;
57225;SDS011;43082;43.568;22.256;2023-04-24T10:22:01;10.73;;;5.30;;
57225;SDS011;43082;43.568;22.256;2023-04-24T10:24:27;13.30;;;6.40;;
57225;SDS011;43082;43.568;22.256;2023-04-24T10:26:53;10.65;;;5.03;;
57225;SDS011;43082;43.568;22.256;2023-04-24T10:29:19;14.40;;;5.20;;
57225;SDS011;43082;43.568;22.256;2023-04-24T10:31:46;10.65;;;4.75;;
57225;SDS011;43082;43.568;22.256;2023-04-24T10:34:11;9.85;;;4.70;;
57225;SDS011;43082;43.568;22.256;2023-04-24T10:36:40;11.88;;;5.20;;
57225;SDS011;43082;43.568;22.256;2023-04-24T10:39:08;9.57;;;5.20;;
57225;SDS011;43082;43.568;22.256;2023-04-24T10:41:36;10.27;;;4.55;;
57225;SDS011;43082;43.568;22.256;2023-04-24T10:44:10;14.23;;;5.53;;
57225;SDS011;43082;43.568;22.256;2023-04-24T10:46:35;12.73;;;4.72;;
57225;SDS011;43082;43.568;22.256;2023-04-24T10:49:05;9.27;;;4.88;;
57225;SDS011;43082;43.568;22.256;2023-04-24T10:51:47;10.07;;;5.00;;
57225;SDS011;43082;43.568;22.256;2023-04-24T10:54:23;11.52;;;4.85;;
57225;SDS011;43082;43.568;22.256;2023-04-24T10:56:49;11.82;;;5.00;;
57225;SDS011;43082;43.568;22.256;2023-04-24T10:59:23;12.80;;;5.25;;
57225;SDS011;43082;43.568;22.256;2023-04-24T11:01:52;10.17;;;5.17;;
57225;SDS011;43082;43.568;22.256;2023-04-24T11:04:21;11.10;;;7.28;;
57225;SDS011;43082;43.568;22.256;2023-04-24T11:06:53;10.77;;;4.85;;
57225;SDS011;43082;43.568;22.256;2023-04-24T11:09:18;10.88;;;4.30;;
57225;SDS011;43082;43.568;22.256;2023-04-24T11:11:46;10.85;;;5.10;;
57225;SDS011;43082;43.568;22.256;2023-04-24T11:14:14;10.75;;;4.50;;
57225;SDS011;43082;43.568;22.256;2023-04-24T11:16:53;12.32;;;5.28;;
57225;SDS011;43082;43.568;22.256;2023-04-24T11:19:26;11.23;;;5.13;;
57225;SDS011;43082;43.568;22.256;2023-04-24T11:22:00;8.88;;;4.50;;
57225;SDS011;43082;43.568;22.256;2023-04-24T11:26:54;10.25;;;4.45;;
57225;SDS011;43082;43.568;22.256;2023-04-24T11:29:20;10.77;;;5.18;;
57225;SDS011;43082;43.568;22.256;2023-04-24T11:31:46;13.20;;;5.20;;
57225;SDS011;43082;43.568;22.256;2023-04-24T11:34:18;9.85;;;4.78;;
57225;SDS011;43082;43.568;22.256;2023-04-24T11:36:43;12.07;;;5.90;;
57225;SDS011;43082;43.568;22.256;2023-04-24T11:39:09;11.93;;;5.10;;
57225;SDS011;43082;43.568;22.256;2023-04-24T11:41:36;9.77;;;4.50;;
57225;SDS011;43082;43.568;22.256;2023-04-24T11:44:01;11.50;;;4.97;;
57225;SDS011;43082;43.568;22.256;2023-04-24T11:46:30;14.02;;;5.00;;
57225;SDS011;43082;43.568;22.256;2023-04-24T11:48:56;10.80;;;4.82;;
57225;SDS011;43082;43.568;22.256;2023-04-24T11:51:23;8.18;;;4.30;;
57225;SDS011;43082;43.568;22.256;2023-04-24T11:53:49;11.02;;;5.22;;
57225;SDS011;43082;43.568;22.256;2023-04-24T11:56:17;10.90;;;4.40;;
57225;SDS011;43082;43.568;22.256;2023-04-24T11:58:43;9.00;;;4.30;;
57225;SDS011;43082;43.568;22.256;2023-04-24T12:01:09;9.43;;;4.38;;
57225;SDS011;43082;43.568;22.256;2023-04-24T12:03:34;12.40;;;5.68;;
57225;SDS011;43082;43.568;22.256;2023-04-24T12:06:09;10.05;;;5.90;;
57225;SDS011;43082;43.568;22.256;2023-04-24T12:08:35;8.30;;;4.13;;
57225;SDS011;43082;43.568;22.256;2023-04-24T12:11:01;9.30;;;4.50;;
57225;SDS011;43082;43.568;22.256;2023-04-24T12:13:27;10.18;;;4.43;;
57225;SDS011;43082;43.568;22.256;2023-04-24T12:15:52;10.40;;;4.60;;
57225;SDS011;43082;43.568;22.256;2023-04-24T12:18:17;12.18;;;5.65;;
57225;SDS011;43082;43.568;22.256;2023-04-24T12:20:43;15.75;;;5.50;;
57225;SDS011;43082;43.568;22.256;2023-04-24T12:23:08;14.73;;;4.95;;
57225;SDS011;43082;43.568;22.256;2023-04-24T12:25:33;8.90;;;4.57;;
57225;SDS011;43082;43.568;22.256;2023-04-24T12:30:28;11.07;;;4.45;;
57225;SDS011;43082;43.568;22.256;2023-04-24T12:32:54;9.63;;;4.45;;
57225;SDS011;43082;43.568;22.256;2023-04-24T12:35:22;8.20;;;4.25;;
57225;SDS011;43082;43.568;22.256;2023-04-24T12:37:47;7.72;;;3.97;;
57225;SDS011;43082;43.568;22.256;2023-04-24T12:40:13;14.30;;;5.13;;
57225;SDS011;43082;43.568;22.256;2023-04-24T12:42:43;16.30;;;5.35;;
57225;SDS011;43082;43.568;22.256;2023-04-24T12:45:08;10.80;;;5.85;;
57225;SDS011;43082;43.568;22.256;2023-04-24T12:47:34;9.65;;;4.93;;
57225;SDS011;43082;43.568;22.256;2023-04-24T12:50:00;12.23;;;4.57;;
57225;SDS011;43082;43.568;22.256;2023-04-24T12:52:26;14.07;;;7.55;;
57225;SDS011;43082;43.568;22.256;2023-04-24T12:54:55;22.50;;;11.57;;
57225;SDS011;43082;43.568;22.256;2023-04-24T12:57:21;14.73;;;7.68;;
57225;SDS011;43082;43.568;22.256;2023-04-24T12:59:46;10.68;;;5.50;;
57225;SDS011;43082;43.568;22.256;2023-04-24T13:02:12;14.60;;;5.25;;
57225;SDS011;43082;43.568;22.256;2023-04-24T13:04:37;17.67;;;5.30;;
57225;SDS011;43082;43.568;22.256;2023-04-24T13:07:03;13.00;;;7.10;;
57225;SDS011;43082;43.568;22.256;2023-04-24T13:09:28;15.85;;;10.63;;
57225;SDS011;43082;43.568;22.256;2023-04-24T13:11:53;12.50;;;4.45;;
57225;SDS011;43082;43.568;22.256;2023-04-24T13:14:19;9.85;;;3.72;;
57225;SDS011;43082;43.568;22.256;2023-04-24T13:16:44;9.45;;;4.10;;
57225;SDS011;43082;43.568;22.256;2023-04-24T13:19:10;9.15;;;4.25;;
57225;SDS011;43082;43.568;22.256;2023-04-24T13:21:35;8.05;;;3.60;;
57225;SDS011;43082;43.568;22.256;2023-04-24T13:24:00;13.13;;;4.20;;
57225;SDS011;43082;43.568;22.256;2023-04-24T13:26:26;7.82;;;4.20;;
57225;SDS011;43082;43.568;22.256;2023-04-24T13:28:51;7.82;;;4.15;;
57225;SDS011;43082;43.568;22.256;2023-04-24T13:31:16;8.48;;;3.78;;
57225;SDS011;43082;43.568;22.256;2023-04-24T13:33:42;9.30;;;3.80;;
57225;SDS011;43082;43.568;22.256;2023-04-24T13:36:07;7.45;;;4.20;;
57225;SDS011;43082;43.568;22.256;2023-04-24T13:38:32;14.20;;;5.13;;
57225;SDS011;43082;43.568;22.256;2023-04-24T13:40:58;8.88;;;3.75;;
57225;SDS011;43082;43.568;22.256;2023-04-24T13:43:23;10.93;;;4.13;;
57225;SDS011;43082;43.568;22.256;2023-04-24T13:45:49;9.10;;;4.22;;
57225;SDS011;43082;43.568;22.256;2023-04-24T13:48:14;15.73;;;8.60;;
57225;SDS011;43082;43.568;22.256;2023-04-24T13:50:43;13.52;;;6.60;;
57225;SDS011;43082;43.568;22.256;2023-04-24T13:53:09;14.05;;;6.50;;
57225;SDS011;43082;43.568;22.256;2023-04-24T13:55:34;12.40;;;5.78;;
57225;SDS011;43082;43.568;22.256;2023-04-24T13:58:00;11.05;;;5.30;;
57225;SDS011;43082;43.568;22.256;2023-04-24T14:00:26;13.60;;;6.35;;
57225;SDS011;43082;43.568;22.256;2023-04-24T14:02:51;23.73;;;13.43;;
57225;SDS011;43082;43.568;22.256;2023-04-24T14:05:16;18.83;;;11.73;;
57225;SDS011;43082;43.568;22.256;2023-04-24T14:07:43;20.80;;;11.55;;
57225;SDS011;43082;43.568;22.256;2023-04-24T14:10:08;21.83;;;11.95;;
57225;SDS011;43082;43.568;22.256;2023-04-24T14:12:34;64.90;;;46.08;;
57225;SDS011;43082;43.568;22.256;2023-04-24T14:15:00;25.08;;;16.55;;
57225;SDS011;43082;43.568;22.256;2023-04-24T14:17:26;17.90;;;10.23;;
57225;SDS011;43082;43.568;22.256;2023-04-24T14:19:51;20.38;;;10.20;;